sensor_id;sensor_type;location;lat;lon;timestamp;temperature;humidity
50067;DHT22;35952;52.524;13.340;2023-04-08T00:00:48;6.50;99.90
50067;DHT22;35952;52.524;13.340;2023-04-08T00:03:14;6.40;99.90
50067;DHT22;35952;52.524;13.340;2023-04-08T00:05:39;6.40;99.90
50067;DHT22;35952;52.524;13.340;2023-04-08T00:08:05;6.50;99.90
50067;DHT22;35952;52.524;13.340;2023-04-08T00:10:31;6.40;99.90
50067;DHT22;35952;52.524;13.340;2023-04-08T00:12:56;6.40;99.90
50067;DHT22;35952;52.524;13.340;2023-04-08T00:15:22;6.50;99.90
50067;DHT22;35952;52.524;13.340;2023-04-08T00:17:47;6.50;99.90
50067;DHT22;35952;52.524;13.340;2023-04-08T00:20:13;6.60;99.90
50067;DHT22;35952;52.524;13.340;2023-04-08T00:22:38;6.50;99.90
50067;DHT22;35952;52.524;13.340;2023-04-08T00:25:05;6.50;99.90
50067;DHT22;35952;52.524;13.340;2023-04-08T00:27:34;6.50;99.90
50067;DHT22;35952;52.524;13.340;2023-04-08T00:29:59;6.50;99.90
50067;DHT22;35952;52.524;13.340;2023-04-08T00:32:26;6.50;99.90
50067;DHT22;35952;52.524;13.340;2023-04-08T00:34:52;6.50;99.90
50067;DHT22;35952;52.524;13.340;2023-04-08T00:37:18;6.40;99.90
50067;DHT22;35952;52.524;13.340;2023-04-08T00:39:43;6.50;99.90
50067;DHT22;35952;52.524;13.340;2023-04-08T00:42:09;6.50;99.90
50067;DHT22;35952;52.524;13.340;2023-04-08T00:44:35;6.50;99.90
50067;DHT22;35952;52.524;13.340;2023-04-08T00:47:00;6.50;99.90
50067;DHT22;35952;52.524;13.340;2023-04-08T00:49:26;6.50;99.90
50067;DHT22;35952;52.524;13.340;2023-04-08T00:51:53;6.50;99.90
50067;DHT22;35952;52.524;13.340;2023-04-08T00:54:19;6.50;99.90
50067;DHT22;35952;52.524;13.340;2023-04-08T00:56:44;6.50;99.90
50067;DHT22;35952;52.524;13.340;2023-04-08T00:59:10;6.50;99.90
50067;DHT22;35952;52.524;13.340;2023-04-08T01:01:58;6.40;99.90
50067;DHT22;35952;52.524;13.340;2023-04-08T01:04:49;6.50;99.90
50067;DHT22;35952;52.524;13.340;2023-04-08T01:09:51;6.50;99.90
50067;DHT22;35952;52.524;13.340;2023-04-08T01:12:25;6.40;99.90
50067;DHT22;35952;52.524;13.340;2023-04-08T01:15:05;6.40;99.90
50067;DHT22;35952;52.524;13.340;2023-04-08T01:17:33;6.40;99.90
50067;DHT22;35952;52.524;13.340;2023-04-08T01:20:01;6.50;99.90
50067;DHT22;35952;52.524;13.340;2023-04-08T01:25:05;6.50;99.90
50067;DHT22;35952;52.524;13.340;2023-04-08T01:27:33;6.50;99.90
50067;DHT22;35952;52.524;13.340;2023-04-08T01:30:01;6.50;99.90
50067;DHT22;35952;52.524;13.340;2023-04-08T01:32:28;6.50;99.90
50067;DHT22;35952;52.524;13.340;2023-04-08T01:34:55;6.50;99.90
50067;DHT22;35952;52.524;13.340;2023-04-08T01:37:22;6.50;99.90
50067;DHT22;35952;52.524;13.340;2023-04-08T01:39:50;6.60;99.90
50067;DHT22;35952;52.524;13.340;2023-04-08T01:42:16;6.50;99.90
50067;DHT22;35952;52.524;13.340;2023-04-08T01:44:42;6.50;99.90
50067;DHT22;35952;52.524;13.340;2023-04-08T01:47:09;6.50;99.90
50067;DHT22;35952;52.524;13.340;2023-04-08T01:49:37;6.50;99.90
50067;DHT22;35952;52.524;13.340;2023-04-08T01:52:04;6.50;99.90
50067;DHT22;35952;52.524;13.340;2023-04-08T01:54:30;6.40;99.90
50067;DHT22;35952;52.524;13.340;2023-04-08T01:56:56;6.40;99.90
50067;DHT22;35952;52.524;13.340;2023-04-08T01:59:23;6.50;99.90
50067;DHT22;35952;52.524;13.340;2023-04-08T02:01:54;6.50;99.90
50067;DHT22;35952;52.524;13.340;2023-04-08T02:04:20;6.50;99.90
50067;DHT22;35952;52.524;13.340;2023-04-08T02:06:46;6.50;99.90
50067;DHT22;35952;52.524;13.340;2023-04-08T02:09:11;6.50;99.90
50067;DHT22;35952;52.524;13.340;2023-04-08T02:11:37;6.50;99.90
50067;DHT22;35952;52.524;13.340;2023-04-08T02:14:03;6.50;99.90
50067;DHT22;35952;52.524;13.340;2023-04-08T02:19:14;6.50;99.90
50067;DHT22;35952;52.524;13.340;2023-04-08T02:21:48;6.50;99.90
50067;DHT22;35952;52.524;13.340;2023-04-08T02:24:17;6.50;99.90
50067;DHT22;35952;52.524;13.340;2023-04-08T02:26:43;6.50;99.90
50067;DHT22;35952;52.524;13.340;2023-04-08T02:29:12;6.60;99.90
50067;DHT22;35952;52.524;13.340;2023-04-08T02:31:41;6.60;99.90
50067;DHT22;35952;52.524;13.340;2023-04-08T02:34:09;6.60;99.90
50067;DHT22;35952;52.524;13.340;2023-04-08T02:36:35;6.60;99.90
50067;DHT22;35952;52.524;13.340;2023-04-08T02:39:02;6.50;99.90
50067;DHT22;35952;52.524;13.340;2023-04-08T02:41:28;6.40;99.90
50067;DHT22;35952;52.524;13.340;2023-04-08T02:43:54;6.50;99.90
50067;DHT22;35952;52.524;13.340;2023-04-08T02:46:20;6.50;99.90
50067;DHT22;35952;52.524;13.340;2023-04-08T02:48:45;6.50;99.90
50067;DHT22;35952;52.524;13.340;2023-04-08T02:51:11;6.50;99.90
50067;DHT22;35952;52.524;13.340;2023-04-08T02:53:36;6.50;99.90
50067;DHT22;35952;52.524;13.340;2023-04-08T02:56:02;6.50;99.90
50067;DHT22;35952;52.524;13.340;2023-04-08T02:58:27;6.50;99.90
50067;DHT22;35952;52.524;13.340;2023-04-08T03:00:53;6.50;99.90
50067;DHT22;35952;52.524;13.340;2023-04-08T03:03:18;6.50;99.90
50067;DHT22;35952;52.524;13.340;2023-04-08T03:05:44;6.50;99.90
50067;DHT22;35952;52.524;13.340;2023-04-08T03:08:09;6.50;99.90
50067;DHT22;35952;52.524;13.340;2023-04-08T03:10:35;6.50;99.90
50067;DHT22;35952;52.524;13.340;2023-04-08T03:13:00;6.50;99.90
50067;DHT22;35952;52.524;13.340;2023-04-08T03:15:26;6.50;99.90
50067;DHT22;35952;52.524;13.340;2023-04-08T03:17:51;6.50;99.90
50067;DHT22;35952;52.524;13.340;2023-04-08T03:20:17;6.50;99.90
50067;DHT22;35952;52.524;13.340;2023-04-08T03:22:42;6.50;99.90
50067;DHT22;35952;52.524;13.340;2023-04-08T03:25:08;6.50;99.90
50067;DHT22;35952;52.524;13.340;2023-04-08T03:27:34;6.60;99.90
50067;DHT22;35952;52.524;13.340;2023-04-08T03:29:59;6.60;99.90
50067;DHT22;35952;52.524;13.340;2023-04-08T03:32:25;6.60;99.90
50067;DHT22;35952;52.524;13.340;2023-04-08T03:34:50;6.60;99.90
50067;DHT22;35952;52.524;13.340;2023-04-08T03:37:17;6.50;99.90
50067;DHT22;35952;52.524;13.340;2023-04-08T03:39:43;6.50;99.90
50067;DHT22;35952;52.524;13.340;2023-04-08T03:42:08;6.50;99.90
50067;DHT22;35952;52.524;13.340;2023-04-08T03:44:33;6.40;99.90
50067;DHT22;35952;52.524;13.340;2023-04-08T03:46:59;6.40;99.90
50067;DHT22;35952;52.524;13.340;2023-04-08T03:49:24;6.40;99.90
50067;DHT22;35952;52.524;13.340;2023-04-08T03:51:50;6.40;99.90
50067;DHT22;35952;52.524;13.340;2023-04-08T03:54:16;6.40;99.90
50067;DHT22;35952;52.524;13.340;2023-04-08T03:56:41;6.50;99.90
50067;DHT22;35952;52.524;13.340;2023-04-08T03:59:07;6.50;99.90
50067;DHT22;35952;52.524;13.340;2023-04-08T04:01:32;6.50;99.90
50067;DHT22;35952;52.524;13.340;2023-04-08T04:03:58;6.50;99.90
50067;DHT22;35952;52.524;13.340;2023-04-08T04:06:23;6.50;99.90
50067;DHT22;35952;52.524;13.340;2023-04-08T04:08:52;6.50;99.90
50067;DHT22;35952;52.524;13.340;2023-04-08T04:11:18;6.50;99.90
50067;DHT22;35952;52.524;13.340;2023-04-08T04:13:44;6.50;99.90
50067;DHT22;35952;52.524;13.340;2023-04-08T04:16:09;6.40;99.90
50067;DHT22;35952;52.524;13.340;2023-04-08T04:18:35;6.40;99.90
50067;DHT22;35952;52.524;13.340;2023-04-08T04:21:04;6.60;99.90
50067;DHT22;35952;52.524;13.340;2023-04-08T04:23:30;6.60;99.90
50067;DHT22;35952;52.524;13.340;2023-04-08T04:25:56;6.60;99.90
50067;DHT22;35952;52.524;13.340;2023-04-08T04:28:21;6.60;99.90
50067;DHT22;35952;52.524;13.340;2023-04-08T04:30:47;6.70;99.90
50067;DHT22;35952;52.524;13.340;2023-04-08T04:33:12;6.70;99.90
50067;DHT22;35952;52.524;13.340;2023-04-08T04:35:38;6.80;99.90
50067;DHT22;35952;52.524;13.340;2023-04-08T04:38:05;6.70;99.90
50067;DHT22;35952;52.524;13.340;2023-04-08T04:40:35;6.60;99.90
50067;DHT22;35952;52.524;13.340;2023-04-08T04:43:01;6.60;99.90
50067;DHT22;35952;52.524;13.340;2023-04-08T04:45:26;6.70;99.90
50067;DHT22;35952;52.524;13.340;2023-04-08T04:47:52;6.70;99.90
50067;DHT22;35952;52.524;13.340;2023-04-08T04:50:17;6.70;99.90
50067;DHT22;35952;52.524;13.340;2023-04-08T04:52:43;6.60;99.90
50067;DHT22;35952;52.524;13.340;2023-04-08T04:55:09;6.50;99.90
50067;DHT22;35952;52.524;13.340;2023-04-08T04:57:34;6.60;99.90
50067;DHT22;35952;52.524;13.340;2023-04-08T05:00:00;6.60;99.90
50067;DHT22;35952;52.524;13.340;2023-04-08T05:02:26;6.70;99.90
50067;DHT22;35952;52.524;13.340;2023-04-08T05:04:51;6.80;99.90
50067;DHT22;35952;52.524;13.340;2023-04-08T05:07:20;6.70;99.90
50067;DHT22;35952;52.524;13.340;2023-04-08T05:09:46;6.70;99.90
50067;DHT22;35952;52.524;13.340;2023-04-08T05:12:12;6.70;99.90
50067;DHT22;35952;52.524;13.340;2023-04-08T05:14:37;6.70;99.90
50067;DHT22;35952;52.524;13.340;2023-04-08T05:17:03;6.80;99.90
50067;DHT22;35952;52.524;13.340;2023-04-08T05:19:30;6.80;99.90
50067;DHT22;35952;52.524;13.340;2023-04-08T05:21:55;6.70;99.90
50067;DHT22;35952;52.524;13.340;2023-04-08T05:24:21;6.80;99.90
50067;DHT22;35952;52.524;13.340;2023-04-08T05:26:46;6.90;99.90
50067;DHT22;35952;52.524;13.340;2023-04-08T05:29:16;7.00;99.90
50067;DHT22;35952;52.524;13.340;2023-04-08T05:31:42;6.90;99.90
50067;DHT22;35952;52.524;13.340;2023-04-08T05:34:08;7.00;99.90
50067;DHT22;35952;52.524;13.340;2023-04-08T05:36:34;6.90;99.90
50067;DHT22;35952;52.524;13.340;2023-04-08T05:39:00;7.00;99.90
50067;DHT22;35952;52.524;13.340;2023-04-08T05:41:25;7.00;99.90
50067;DHT22;35952;52.524;13.340;2023-04-08T05:43:51;7.10;99.90
50067;DHT22;35952;52.524;13.340;2023-04-08T05:46:16;7.20;99.90
50067;DHT22;35952;52.524;13.340;2023-04-08T05:48:42;7.20;99.90
50067;DHT22;35952;52.524;13.340;2023-04-08T05:51:13;7.20;99.90
50067;DHT22;35952;52.524;13.340;2023-04-08T05:53:38;7.20;99.90
50067;DHT22;35952;52.524;13.340;2023-04-08T05:56:04;7.10;99.90
50067;DHT22;35952;52.524;13.340;2023-04-08T05:58:29;7.20;99.90
50067;DHT22;35952;52.524;13.340;2023-04-08T06:00:55;7.20;99.90
50067;DHT22;35952;52.524;13.340;2023-04-08T06:03:21;7.20;99.90
50067;DHT22;35952;52.524;13.340;2023-04-08T06:05:46;7.20;99.90
50067;DHT22;35952;52.524;13.340;2023-04-08T06:08:12;7.20;99.90
50067;DHT22;35952;52.524;13.340;2023-04-08T06:10:37;7.20;99.90
50067;DHT22;35952;52.524;13.340;2023-04-08T06:13:03;7.20;99.90
50067;DHT22;35952;52.524;13.340;2023-04-08T06:15:28;7.20;99.90
50067;DHT22;35952;52.524;13.340;2023-04-08T06:17:54;7.30;99.90
50067;DHT22;35952;52.524;13.340;2023-04-08T06:20:19;7.30;99.90
50067;DHT22;35952;52.524;13.340;2023-04-08T06:22:45;7.40;99.90
50067;DHT22;35952;52.524;13.340;2023-04-08T06:25:10;7.30;99.90
50067;DHT22;35952;52.524;13.340;2023-04-08T06:27:36;7.40;99.90
50067;DHT22;35952;52.524;13.340;2023-04-08T06:30:01;7.50;99.90
50067;DHT22;35952;52.524;13.340;2023-04-08T06:32:27;7.60;99.90
50067;DHT22;35952;52.524;13.340;2023-04-08T06:34:53;7.70;99.90
50067;DHT22;35952;52.524;13.340;2023-04-08T06:37:18;7.70;99.90
50067;DHT22;35952;52.524;13.340;2023-04-08T06:39:43;7.80;99.90
50067;DHT22;35952;52.524;13.340;2023-04-08T06:42:09;7.80;99.90
50067;DHT22;35952;52.524;13.340;2023-04-08T06:44:35;7.90;99.90
50067;DHT22;35952;52.524;13.340;2023-04-08T06:47:00;7.90;99.90
50067;DHT22;35952;52.524;13.340;2023-04-08T06:49:26;8.00;99.90
50067;DHT22;35952;52.524;13.340;2023-04-08T06:51:52;8.00;99.90
50067;DHT22;35952;52.524;13.340;2023-04-08T06:54:17;7.90;99.90
50067;DHT22;35952;52.524;13.340;2023-04-08T06:56:43;8.10;99.90
50067;DHT22;35952;52.524;13.340;2023-04-08T06:59:08;8.10;99.90
50067;DHT22;35952;52.524;13.340;2023-04-08T07:01:34;8.00;99.90
50067;DHT22;35952;52.524;13.340;2023-04-08T07:03:59;8.00;99.90
50067;DHT22;35952;52.524;13.340;2023-04-08T07:06:26;8.10;99.90
50067;DHT22;35952;52.524;13.340;2023-04-08T07:08:52;8.10;99.90
50067;DHT22;35952;52.524;13.340;2023-04-08T07:11:17;8.20;99.90
50067;DHT22;35952;52.524;13.340;2023-04-08T07:13:43;8.20;99.90
50067;DHT22;35952;52.524;13.340;2023-04-08T07:16:08;8.30;99.90
50067;DHT22;35952;52.524;13.340;2023-04-08T07:18:34;8.30;99.90
50067;DHT22;35952;52.524;13.340;2023-04-08T07:21:00;8.40;99.90
50067;DHT22;35952;52.524;13.340;2023-04-08T07:23:26;8.50;99.90
50067;DHT22;35952;52.524;13.340;2023-04-08T07:25:52;8.60;99.90
50067;DHT22;35952;52.524;13.340;2023-04-08T07:28:19;8.80;99.90
50067;DHT22;35952;52.524;13.340;2023-04-08T07:30:44;8.80;99.90
50067;DHT22;35952;52.524;13.340;2023-04-08T07:33:10;9.00;99.90
50067;DHT22;35952;52.524;13.340;2023-04-08T07:35:35;9.20;99.90
50067;DHT22;35952;52.524;13.340;2023-04-08T07:38:02;9.30;99.90
50067;DHT22;35952;52.524;13.340;2023-04-08T07:40:27;9.50;99.90
50067;DHT22;35952;52.524;13.340;2023-04-08T07:42:54;9.50;99.90
50067;DHT22;35952;52.524;13.340;2023-04-08T07:45:19;9.70;99.90
50067;DHT22;35952;52.524;13.340;2023-04-08T07:47:45;9.70;99.90
50067;DHT22;35952;52.524;13.340;2023-04-08T07:50:11;9.70;99.90
50067;DHT22;35952;52.524;13.340;2023-04-08T07:52:37;9.50;99.90
50067;DHT22;35952;52.524;13.340;2023-04-08T07:55:03;9.40;99.90
50067;DHT22;35952;52.524;13.340;2023-04-08T07:57:30;9.40;99.90
50067;DHT22;35952;52.524;13.340;2023-04-08T07:59:55;9.20;99.90
50067;DHT22;35952;52.524;13.340;2023-04-08T08:02:21;9.10;99.90
50067;DHT22;35952;52.524;13.340;2023-04-08T08:04:47;9.10;99.90
50067;DHT22;35952;52.524;13.340;2023-04-08T08:07:12;9.20;99.90
50067;DHT22;35952;52.524;13.340;2023-04-08T08:09:38;9.40;99.90
50067;DHT22;35952;52.524;13.340;2023-04-08T08:12:03;9.90;99.90
50067;DHT22;35952;52.524;13.340;2023-04-08T08:14:29;10.00;99.90
50067;DHT22;35952;52.524;13.340;2023-04-08T08:16:54;9.90;99.90
50067;DHT22;35952;52.524;13.340;2023-04-08T08:19:21;9.90;99.90
50067;DHT22;35952;52.524;13.340;2023-04-08T08:21:46;9.90;99.90
50067;DHT22;35952;52.524;13.340;2023-04-08T08:24:12;10.00;99.90
50067;DHT22;35952;52.524;13.340;2023-04-08T08:26:37;10.00;99.90
50067;DHT22;35952;52.524;13.340;2023-04-08T08:29:04;10.10;99.90
50067;DHT22;35952;52.524;13.340;2023-04-08T08:31:30;10.10;99.90
50067;DHT22;35952;52.524;13.340;2023-04-08T08:33:56;10.20;99.90
50067;DHT22;35952;52.524;13.340;2023-04-08T08:36:21;10.40;99.90
50067;DHT22;35952;52.524;13.340;2023-04-08T08:38:47;10.40;99.90
50067;DHT22;35952;52.524;13.340;2023-04-08T08:41:13;10.50;99.90
50067;DHT22;35952;52.524;13.340;2023-04-08T08:43:39;10.70;99.90
50067;DHT22;35952;52.524;13.340;2023-04-08T08:46:09;11.00;99.90
50067;DHT22;35952;52.524;13.340;2023-04-08T08:48:36;11.00;99.90
50067;DHT22;35952;52.524;13.340;2023-04-08T08:51:07;11.20;99.90
50067;DHT22;35952;52.524;13.340;2023-04-08T08:53:33;11.20;99.90
50067;DHT22;35952;52.524;13.340;2023-04-08T08:55:59;11.50;99.90
50067;DHT22;35952;52.524;13.340;2023-04-08T08:58:27;11.80;99.90
50067;DHT22;35952;52.524;13.340;2023-04-08T09:00:53;11.80;99.90
50067;DHT22;35952;52.524;13.340;2023-04-08T09:03:24;11.80;99.90
50067;DHT22;35952;52.524;13.340;2023-04-08T09:08:24;12.00;99.90
50067;DHT22;35952;52.524;13.340;2023-04-08T09:10:50;11.90;99.90
50067;DHT22;35952;52.524;13.340;2023-04-08T09:13:16;11.80;99.90
50067;DHT22;35952;52.524;13.340;2023-04-08T09:16:01;11.60;99.90
50067;DHT22;35952;52.524;13.340;2023-04-08T09:18:31;11.80;99.90
50067;DHT22;35952;52.524;13.340;2023-04-08T09:21:01;11.90;99.90
50067;DHT22;35952;52.524;13.340;2023-04-08T09:23:47;11.60;99.90
50067;DHT22;35952;52.524;13.340;2023-04-08T09:26:13;11.40;99.90
50067;DHT22;35952;52.524;13.340;2023-04-08T09:28:40;11.20;99.90
50067;DHT22;35952;52.524;13.340;2023-04-08T09:33:47;11.40;99.90
50067;DHT22;35952;52.524;13.340;2023-04-08T09:36:14;11.40;99.90
50067;DHT22;35952;52.524;13.340;2023-04-08T09:38:39;11.40;99.90
50067;DHT22;35952;52.524;13.340;2023-04-08T09:41:07;11.40;99.90
50067;DHT22;35952;52.524;13.340;2023-04-08T09:43:43;11.40;99.90
50067;DHT22;35952;52.524;13.340;2023-04-08T09:46:13;11.20;99.90
50067;DHT22;35952;52.524;13.340;2023-04-08T09:48:45;11.20;99.90
50067;DHT22;35952;52.524;13.340;2023-04-08T09:51:15;11.10;99.90
50067;DHT22;35952;52.524;13.340;2023-04-08T09:53:46;11.10;99.90
50067;DHT22;35952;52.524;13.340;2023-04-08T09:56:13;10.90;99.90
50067;DHT22;35952;52.524;13.340;2023-04-08T09:58:44;10.70;99.90
50067;DHT22;35952;52.524;13.340;2023-04-08T10:01:13;10.70;99.90
50067;DHT22;35952;52.524;13.340;2023-04-08T10:03:48;10.60;99.90
50067;DHT22;35952;52.524;13.340;2023-04-08T10:06:16;10.80;99.90
50067;DHT22;35952;52.524;13.340;2023-04-08T10:08:42;10.90;99.90
50067;DHT22;35952;52.524;13.340;2023-04-08T10:11:08;11.00;99.90
50067;DHT22;35952;52.524;13.340;2023-04-08T10:13:34;10.90;99.90
50067;DHT22;35952;52.524;13.340;2023-04-08T10:18:44;11.30;99.90
50067;DHT22;35952;52.524;13.340;2023-04-08T10:21:33;11.40;99.90
50067;DHT22;35952;52.524;13.340;2023-04-08T10:24:00;11.50;99.90
50067;DHT22;35952;52.524;13.340;2023-04-08T10:26:32;11.50;99.90
50067;DHT22;35952;52.524;13.340;2023-04-08T10:29:31;11.60;99.90
50067;DHT22;35952;52.524;13.340;2023-04-08T10:31:57;12.30;99.90
50067;DHT22;35952;52.524;13.340;2023-04-08T10:34:24;12.60;99.90
50067;DHT22;35952;52.524;13.340;2023-04-08T10:36:52;13.30;99.90
50067;DHT22;35952;52.524;13.340;2023-04-08T10:39:18;14.20;99.90
50067;DHT22;35952;52.524;13.340;2023-04-08T10:41:45;14.70;99.90
50067;DHT22;35952;52.524;13.340;2023-04-08T10:44:18;15.70;99.90
50067;DHT22;35952;52.524;13.340;2023-04-08T10:46:49;15.60;99.90
50067;DHT22;35952;52.524;13.340;2023-04-08T10:49:15;15.10;99.90
50067;DHT22;35952;52.524;13.340;2023-04-08T10:51:42;14.80;99.90
50067;DHT22;35952;52.524;13.340;2023-04-08T10:54:10;14.20;99.90
50067;DHT22;35952;52.524;13.340;2023-04-08T10:56:43;13.70;99.90
50067;DHT22;35952;52.524;13.340;2023-04-08T10:59:09;13.50;99.90
50067;DHT22;35952;52.524;13.340;2023-04-08T11:01:39;13.30;99.90
50067;DHT22;35952;52.524;13.340;2023-04-08T11:04:16;13.10;99.90
50067;DHT22;35952;52.524;13.340;2023-04-08T11:06:44;12.70;99.90
50067;DHT22;35952;52.524;13.340;2023-04-08T11:09:11;12.60;99.90
50067;DHT22;35952;52.524;13.340;2023-04-08T11:11:37;12.40;99.90
50067;DHT22;35952;52.524;13.340;2023-04-08T11:14:03;12.40;99.90
50067;DHT22;35952;52.524;13.340;2023-04-08T11:16:30;12.50;99.90
50067;DHT22;35952;52.524;13.340;2023-04-08T11:18:57;13.60;99.90
50067;DHT22;35952;52.524;13.340;2023-04-08T11:21:23;14.60;99.90
50067;DHT22;35952;52.524;13.340;2023-04-08T11:23:49;14.40;99.90
50067;DHT22;35952;52.524;13.340;2023-04-08T11:26:16;14.40;99.90
50067;DHT22;35952;52.524;13.340;2023-04-08T11:28:41;14.50;99.90
50067;DHT22;35952;52.524;13.340;2023-04-08T11:31:07;14.90;99.90
50067;DHT22;35952;52.524;13.340;2023-04-08T11:33:33;14.90;99.90
50067;DHT22;35952;52.524;13.340;2023-04-08T11:36:01;14.80;99.90
50067;DHT22;35952;52.524;13.340;2023-04-08T11:38:28;14.70;99.90
50067;DHT22;35952;52.524;13.340;2023-04-08T11:40:55;14.60;99.90
50067;DHT22;35952;52.524;13.340;2023-04-08T11:43:21;14.50;99.90
50067;DHT22;35952;52.524;13.340;2023-04-08T11:45:47;14.40;99.90
50067;DHT22;35952;52.524;13.340;2023-04-08T11:48:14;14.10;99.90
50067;DHT22;35952;52.524;13.340;2023-04-08T11:50:41;14.20;99.90
50067;DHT22;35952;52.524;13.340;2023-04-08T11:53:24;14.30;99.90
50067;DHT22;35952;52.524;13.340;2023-04-08T11:55:50;15.00;99.90
50067;DHT22;35952;52.524;13.340;2023-04-08T11:58:16;15.60;99.90
50067;DHT22;35952;52.524;13.340;2023-04-08T12:00:42;16.10;99.90
50067;DHT22;35952;52.524;13.340;2023-04-08T12:03:09;16.00;99.90
50067;DHT22;35952;52.524;13.340;2023-04-08T12:05:35;15.30;99.90
50067;DHT22;35952;52.524;13.340;2023-04-08T12:08:01;14.40;99.90
50067;DHT22;35952;52.524;13.340;2023-04-08T12:10:27;13.90;99.90
50067;DHT22;35952;52.524;13.340;2023-04-08T12:12:52;13.80;99.90
50067;DHT22;35952;52.524;13.340;2023-04-08T12:15:18;13.80;99.90
50067;DHT22;35952;52.524;13.340;2023-04-08T12:17:43;13.70;99.90
50067;DHT22;35952;52.524;13.340;2023-04-08T12:20:14;13.70;99.90
50067;DHT22;35952;52.524;13.340;2023-04-08T12:22:57;13.80;99.90
50067;DHT22;35952;52.524;13.340;2023-04-08T12:25:23;14.00;99.90
50067;DHT22;35952;52.524;13.340;2023-04-08T12:27:49;14.10;99.90
50067;DHT22;35952;52.524;13.340;2023-04-08T12:30:14;14.40;99.90
50067;DHT22;35952;52.524;13.340;2023-04-08T12:32:40;14.70;99.90
50067;DHT22;35952;52.524;13.340;2023-04-08T12:35:07;15.00;99.90
50067;DHT22;35952;52.524;13.340;2023-04-08T12:37:32;15.20;99.90
50067;DHT22;35952;52.524;13.340;2023-04-08T12:39:58;15.80;99.90
50067;DHT22;35952;52.524;13.340;2023-04-08T12:42:23;15.60;99.90
50067;DHT22;35952;52.524;13.340;2023-04-08T12:44:49;15.30;99.90
50067;DHT22;35952;52.524;13.340;2023-04-08T12:47:14;15.20;99.90
50067;DHT22;35952;52.524;13.340;2023-04-08T12:49:40;16.00;97.20
50067;DHT22;35952;52.524;13.340;2023-04-08T12:52:05;16.00;96.90
50067;DHT22;35952;52.524;13.340;2023-04-08T12:54:31;16.50;96.10
50067;DHT22;35952;52.524;13.340;2023-04-08T12:56:56;17.40;91.60
50067;DHT22;35952;52.524;13.340;2023-04-08T12:59:22;18.20;85.10
50067;DHT22;35952;52.524;13.340;2023-04-08T13:01:48;19.00;69.10
50067;DHT22;35952;52.524;13.340;2023-04-08T13:04:13;18.90;65.00
50067;DHT22;35952;52.524;13.340;2023-04-08T13:06:38;18.30;65.10
50067;DHT22;35952;52.524;13.340;2023-04-08T13:09:04;18.00;71.60
50067;DHT22;35952;52.524;13.340;2023-04-08T13:11:30;17.90;74.40
50067;DHT22;35952;52.524;13.340;2023-04-08T13:13:56;17.20;78.20
50067;DHT22;35952;52.524;13.340;2023-04-08T13:16:21;16.50;83.50
50067;DHT22;35952;52.524;13.340;2023-04-08T13:18:47;15.80;87.50
50067;DHT22;35952;52.524;13.340;2023-04-08T13:21:13;15.40;93.50
50067;DHT22;35952;52.524;13.340;2023-04-08T13:23:38;15.10;96.90
50067;DHT22;35952;52.524;13.340;2023-04-08T13:26:03;15.10;98.40
50067;DHT22;35952;52.524;13.340;2023-04-08T13:28:29;15.90;95.60
50067;DHT22;35952;52.524;13.340;2023-04-08T13:30:55;17.00;94.60
50067;DHT22;35952;52.524;13.340;2023-04-08T13:33:21;19.30;81.70
50067;DHT22;35952;52.524;13.340;2023-04-08T13:35:46;21.40;68.90
50067;DHT22;35952;52.524;13.340;2023-04-08T13:38:12;23.10;55.80
50067;DHT22;35952;52.524;13.340;2023-04-08T13:40:38;23.20;50.70
50067;DHT22;35952;52.524;13.340;2023-04-08T13:43:04;24.50;48.40
50067;DHT22;35952;52.524;13.340;2023-04-08T13:45:29;26.40;44.40
50067;DHT22;35952;52.524;13.340;2023-04-08T13:47:55;27.90;42.10
50067;DHT22;35952;52.524;13.340;2023-04-08T13:50:21;29.10;39.50
50067;DHT22;35952;52.524;13.340;2023-04-08T13:52:46;29.40;38.30
50067;DHT22;35952;52.524;13.340;2023-04-08T13:55:12;27.70;36.20
50067;DHT22;35952;52.524;13.340;2023-04-08T13:57:37;25.40;38.20
50067;DHT22;35952;52.524;13.340;2023-04-08T14:00:03;23.10;41.00
50067;DHT22;35952;52.524;13.340;2023-04-08T14:02:29;21.20;44.00
50067;DHT22;35952;52.524;13.340;2023-04-08T14:04:56;19.60;46.30
50067;DHT22;35952;52.524;13.340;2023-04-08T14:07:21;18.80;48.50
50067;DHT22;35952;52.524;13.340;2023-04-08T14:09:47;18.30;49.50
50067;DHT22;35952;52.524;13.340;2023-04-08T14:12:12;18.00;50.60
50067;DHT22;35952;52.524;13.340;2023-04-08T14:14:38;18.40;51.30
50067;DHT22;35952;52.524;13.340;2023-04-08T14:17:03;19.10;52.60
50067;DHT22;35952;52.524;13.340;2023-04-08T14:19:29;21.40;48.10
50067;DHT22;35952;52.524;13.340;2023-04-08T14:21:54;22.50;46.70
50067;DHT22;35952;52.524;13.340;2023-04-08T14:24:20;22.80;45.50
50067;DHT22;35952;52.524;13.340;2023-04-08T14:26:46;21.50;46.10
50067;DHT22;35952;52.524;13.340;2023-04-08T14:29:11;19.40;48.30
50067;DHT22;35952;52.524;13.340;2023-04-08T14:31:37;17.70;51.70
50067;DHT22;35952;52.524;13.340;2023-04-08T14:34:02;16.60;53.50
50067;DHT22;35952;52.524;13.340;2023-04-08T14:36:28;16.10;56.00
50067;DHT22;35952;52.524;13.340;2023-04-08T14:38:55;15.90;56.60
50067;DHT22;35952;52.524;13.340;2023-04-08T14:41:21;17.00;55.80
50067;DHT22;35952;52.524;13.340;2023-04-08T14:43:47;18.70;53.50
50067;DHT22;35952;52.524;13.340;2023-04-08T14:46:13;20.40;50.50
50067;DHT22;35952;52.524;13.340;2023-04-08T14:48:38;21.40;48.00
50067;DHT22;35952;52.524;13.340;2023-04-08T14:51:04;21.30;47.10
50067;DHT22;35952;52.524;13.340;2023-04-08T14:53:30;22.20;47.20
50067;DHT22;35952;52.524;13.340;2023-04-08T14:55:56;22.50;45.10
50067;DHT22;35952;52.524;13.340;2023-04-08T14:58:21;21.90;43.70
50067;DHT22;35952;52.524;13.340;2023-04-08T15:00:47;20.80;44.60
50067;DHT22;35952;52.524;13.340;2023-04-08T15:03:13;19.50;46.40
50067;DHT22;35952;52.524;13.340;2023-04-08T15:05:39;18.70;48.60
50067;DHT22;35952;52.524;13.340;2023-04-08T15:08:05;18.00;49.40
50067;DHT22;35952;52.524;13.340;2023-04-08T15:10:31;17.30;51.00
50067;DHT22;35952;52.524;13.340;2023-04-08T15:12:57;16.90;52.50
50067;DHT22;35952;52.524;13.340;2023-04-08T15:15:22;16.80;54.10
50067;DHT22;35952;52.524;13.340;2023-04-08T15:17:48;16.60;53.70
50067;DHT22;35952;52.524;13.340;2023-04-08T15:20:13;16.30;54.20
50067;DHT22;35952;52.524;13.340;2023-04-08T15:22:39;16.10;54.90
50067;DHT22;35952;52.524;13.340;2023-04-08T15:25:05;15.50;55.20
50067;DHT22;35952;52.524;13.340;2023-04-08T15:27:31;15.00;56.60
50067;DHT22;35952;52.524;13.340;2023-04-08T15:29:57;14.70;57.20
50067;DHT22;35952;52.524;13.340;2023-04-08T15:32:22;14.40;58.90
50067;DHT22;35952;52.524;13.340;2023-04-08T15:34:48;14.10;60.30
50067;DHT22;35952;52.524;13.340;2023-04-08T15:37:15;13.90;63.50